메인 페이지
METAR-TAF:

METAR-TAF

공항 :

아비장, 코트디부아르

위도: 05-15N, 경도: 003-56W, 고도: 7m

현재 날씨관측

예보는 39분 전, 15:30시(UTC)에 발표되었습니다.
서남서10kt
온도 30°C
습도 79%
기압 1010 hPa
시정 10km 이상
고도 1300ft 상공 구름 조금
고도 2000ft 상공 구름 조금, 적란운.

METAR: DIAP 181530Z 24010KT 9999 FEW013 FEW020CB 30/26 Q1010 NOSIG

시각: 16:09 (16:09 UTC)

예보

예보는 4 시간 9분 전, 12:00시(UTC)에 발표되었습니다.
예보 대상 시간: 18일 12시부터 19일 18시까지 (UTC)
서남서10kt
시정: 8000m
고도 1200ft 상공 구름 보통
고도 3000ft 상공 구름 많음
확률 40% :
일시적
18일 13시부터 18일 19시까지 (UTC)
고도 1200ft 상공 구름 많음
고도 2000ft 상공 구름 조금, 적란운.
확률 30% :
일시적
18일 14시부터 18일 18시까지 (UTC)
뇌우

TAF: DIAP 181200Z 1812/1918 24010KT 8000 SCT012 BKN030 PROB40 TEMPO 1813/1819 BKN012 FEW020CB PROB30 TEMPO 1814/1818 TS

4,000개 이상의 공항 관측 자료 및 예보 (METAR 및 TAF 보고).

지도상에서 검색 가능한 기상관측소가 노란 점과 빨간 점으로 표시되어 있습니다.

기상관측소 명을 보려면 표시 위로 마우스를 이동하세요.

날씨 관측과 예보를 보려면 클릭하세요.

지도 변경 : 확대하려면 엑스 표시가 있는 녹색 버튼, 축소하려면 빼기 표시가 있는 녹색 버튼, 다음 페이지의 지도를 보려면 녹색 화살표를 클릭하세요.


METAR-TAF: